sensor_id;sensor_type;location;lat;lon;timestamp;temperature;humidity
8459;DHT22;4266;48.816;9.154;2023-02-28T00:01:33;-2.60;52.00
8459;DHT22;4266;48.816;9.154;2023-02-28T00:03:59;-2.60;52.20
8459;DHT22;4266;48.816;9.154;2023-02-28T00:06:25;-2.60;52.30
8459;DHT22;4266;48.816;9.154;2023-02-28T00:08:50;-2.60;52.60
8459;DHT22;4266;48.816;9.154;2023-02-28T00:11:16;-2.60;53.10
8459;DHT22;4266;48.816;9.154;2023-02-28T00:13:42;-2.70;53.40
8459;DHT22;4266;48.816;9.154;2023-02-28T00:16:08;-2.70;53.70
8459;DHT22;4266;48.816;9.154;2023-02-28T00:18:33;-2.70;54.00
8459;DHT22;4266;48.816;9.154;2023-02-28T00:20:58;-2.70;54.30
8459;DHT22;4266;48.816;9.154;2023-02-28T00:23:25;-2.70;54.60
8459;DHT22;4266;48.816;9.154;2023-02-28T00:25:50;-2.70;55.40
8459;DHT22;4266;48.816;9.154;2023-02-28T00:28:16;-2.70;55.40
8459;DHT22;4266;48.816;9.154;2023-02-28T00:30:42;-2.70;55.70
8459;DHT22;4266;48.816;9.154;2023-02-28T00:33:07;-2.70;56.20
8459;DHT22;4266;48.816;9.154;2023-02-28T00:35:33;-2.80;56.60
8459;DHT22;4266;48.816;9.154;2023-02-28T00:37:59;-2.70;57.00
8459;DHT22;4266;48.816;9.154;2023-02-28T00:40:25;-2.80;57.90
8459;DHT22;4266;48.816;9.154;2023-02-28T00:42:51;-2.80;57.90
8459;DHT22;4266;48.816;9.154;2023-02-28T00:45:16;-2.80;58.30
8459;DHT22;4266;48.816;9.154;2023-02-28T00:47:42;-2.80;58.70
8459;DHT22;4266;48.816;9.154;2023-02-28T00:50:09;-2.80;58.90
8459;DHT22;4266;48.816;9.154;2023-02-28T00:52:35;-2.80;59.40
8459;DHT22;4266;48.816;9.154;2023-02-28T00:55:00;-2.80;59.80
8459;DHT22;4266;48.816;9.154;2023-02-28T00:57:26;-2.80;60.50
8459;DHT22;4266;48.816;9.154;2023-02-28T00:59:52;-2.90;61.50
8459;DHT22;4266;48.816;9.154;2023-02-28T01:02:18;-2.90;61.50
8459;DHT22;4266;48.816;9.154;2023-02-28T01:04:44;-2.90;62.40
8459;DHT22;4266;48.816;9.154;2023-02-28T01:07:09;-2.80;63.00
8459;DHT22;4266;48.816;9.154;2023-02-28T01:09:35;-2.90;63.60
8459;DHT22;4266;48.816;9.154;2023-02-28T01:12:00;-2.80;64.50
8459;DHT22;4266;48.816;9.154;2023-02-28T01:14:26;-2.90;65.10
8459;DHT22;4266;48.816;9.154;2023-02-28T01:16:52;-2.90;65.60
8459;DHT22;4266;48.816;9.154;2023-02-28T01:19:17;-2.90;66.50
8459;DHT22;4266;48.816;9.154;2023-02-28T01:21:43;-2.90;67.10
8459;DHT22;4266;48.816;9.154;2023-02-28T01:24:09;-2.90;67.80
8459;DHT22;4266;48.816;9.154;2023-02-28T01:26:34;-2.90;68.60
8459;DHT22;4266;48.816;9.154;2023-02-28T01:29:00;-3.00;69.30
8459;DHT22;4266;48.816;9.154;2023-02-28T01:31:26;-3.00;70.10
8459;DHT22;4266;48.816;9.154;2023-02-28T01:33:51;-2.90;70.80
8459;DHT22;4266;48.816;9.154;2023-02-28T01:36:18;-2.90;71.40
8459;DHT22;4266;48.816;9.154;2023-02-28T01:38:44;-3.00;72.40
8459;DHT22;4266;48.816;9.154;2023-02-28T01:41:10;-3.00;72.30
8459;DHT22;4266;48.816;9.154;2023-02-28T01:43:58;-3.00;73.10
8459;DHT22;4266;48.816;9.154;2023-02-28T01:46:22;-3.00;73.80
8459;DHT22;4266;48.816;9.154;2023-02-28T01:48:51;-2.90;74.10
8459;DHT22;4266;48.816;9.154;2023-02-28T01:51:20;-2.90;74.70
8459;DHT22;4266;48.816;9.154;2023-02-28T01:53:45;-2.90;75.10
8459;DHT22;4266;48.816;9.154;2023-02-28T01:56:10;-2.90;75.20
8459;DHT22;4266;48.816;9.154;2023-02-28T01:58:35;-2.90;75.50
8459;DHT22;4266;48.816;9.154;2023-02-28T02:01:01;-2.80;75.90
8459;DHT22;4266;48.816;9.154;2023-02-28T02:03:27;-2.80;76.30
8459;DHT22;4266;48.816;9.154;2023-02-28T02:05:53;-2.80;76.30
8459;DHT22;4266;48.816;9.154;2023-02-28T02:08:20;-2.90;76.70
8459;DHT22;4266;48.816;9.154;2023-02-28T02:10:47;-2.80;77.00
8459;DHT22;4266;48.816;9.154;2023-02-28T02:13:24;-2.80;77.20
8459;DHT22;4266;48.816;9.154;2023-02-28T02:18:31;-2.90;78.10
8459;DHT22;4266;48.816;9.154;2023-02-28T02:23:48;-2.80;79.20
8459;DHT22;4266;48.816;9.154;2023-02-28T02:26:38;-2.80;79.30
8459;DHT22;4266;48.816;9.154;2023-02-28T02:29:47;-2.80;80.00
8459;DHT22;4266;48.816;9.154;2023-02-28T02:32:09;-2.80;80.10
8459;DHT22;4266;48.816;9.154;2023-02-28T02:34:45;-2.80;80.20
8459;DHT22;4266;48.816;9.154;2023-02-28T02:37:43;-2.70;80.50
8459;DHT22;4266;48.816;9.154;2023-02-28T02:39:53;-2.70;80.60
8459;DHT22;4266;48.816;9.154;2023-02-28T02:42:20;-2.70;81.20
8459;DHT22;4266;48.816;9.154;2023-02-28T02:44:45;-2.70;81.20
8459;DHT22;4266;48.816;9.154;2023-02-28T02:47:10;-2.60;81.50
8459;DHT22;4266;48.816;9.154;2023-02-28T02:49:35;-2.60;81.50
8459;DHT22;4266;48.816;9.154;2023-02-28T02:52:02;-2.60;81.50
8459;DHT22;4266;48.816;9.154;2023-02-28T02:54:27;-2.60;82.00
8459;DHT22;4266;48.816;9.154;2023-02-28T02:56:52;-2.60;81.90
8459;DHT22;4266;48.816;9.154;2023-02-28T02:59:19;-2.50;82.10
8459;DHT22;4266;48.816;9.154;2023-02-28T03:01:44;-2.50;82.40
8459;DHT22;4266;48.816;9.154;2023-02-28T03:04:11;-2.50;82.50
8459;DHT22;4266;48.816;9.154;2023-02-28T03:06:36;-2.50;82.50
8459;DHT22;4266;48.816;9.154;2023-02-28T03:09:01;-2.40;82.70
8459;DHT22;4266;48.816;9.154;2023-02-28T03:11:27;-2.40;82.80
8459;DHT22;4266;48.816;9.154;2023-02-28T03:14:08;-2.40;83.10
8459;DHT22;4266;48.816;9.154;2023-02-28T03:16:36;-2.40;83.40
8459;DHT22;4266;48.816;9.154;2023-02-28T03:21:56;-2.30;84.00
8459;DHT22;4266;48.816;9.154;2023-02-28T03:24:22;-2.30;83.90
8459;DHT22;4266;48.816;9.154;2023-02-28T03:26:48;-2.30;84.10
8459;DHT22;4266;48.816;9.154;2023-02-28T03:29:19;-2.30;84.40
8459;DHT22;4266;48.816;9.154;2023-02-28T03:31:48;-2.20;84.50
8459;DHT22;4266;48.816;9.154;2023-02-28T03:34:16;-2.20;84.50
8459;DHT22;4266;48.816;9.154;2023-02-28T03:36:42;-2.20;84.80
8459;DHT22;4266;48.816;9.154;2023-02-28T03:39:08;-2.20;84.80
8459;DHT22;4266;48.816;9.154;2023-02-28T03:41:36;-2.20;84.80
8459;DHT22;4266;48.816;9.154;2023-02-28T03:44:03;-2.20;84.90
8459;DHT22;4266;48.816;9.154;2023-02-28T03:46:27;-2.20;85.20
8459;DHT22;4266;48.816;9.154;2023-02-28T03:48:55;-2.20;85.30
8459;DHT22;4266;48.816;9.154;2023-02-28T03:51:19;-2.20;85.60
8459;DHT22;4266;48.816;9.154;2023-02-28T03:53:49;-2.10;85.60
8459;DHT22;4266;48.816;9.154;2023-02-28T03:56:20;-2.10;85.60
8459;DHT22;4266;48.816;9.154;2023-02-28T03:58:58;-2.10;85.60
8459;DHT22;4266;48.816;9.154;2023-02-28T04:01:35;-2.10;85.70
8459;DHT22;4266;48.816;9.154;2023-02-28T04:03:59;-2.10;85.60
8459;DHT22;4266;48.816;9.154;2023-02-28T04:06:25;-2.00;85.90
8459;DHT22;4266;48.816;9.154;2023-02-28T04:08:51;-2.00;85.80
8459;DHT22;4266;48.816;9.154;2023-02-28T04:11:24;-2.00;85.70
8459;DHT22;4266;48.816;9.154;2023-02-28T04:13:48;-2.00;85.60
8459;DHT22;4266;48.816;9.154;2023-02-28T04:16:14;-1.90;85.60
8459;DHT22;4266;48.816;9.154;2023-02-28T04:18:40;-2.00;85.50
8459;DHT22;4266;48.816;9.154;2023-02-28T04:21:06;-1.90;85.70
8459;DHT22;4266;48.816;9.154;2023-02-28T04:23:32;-1.90;85.70
8459;DHT22;4266;48.816;9.154;2023-02-28T04:25:58;-1.90;85.60
8459;DHT22;4266;48.816;9.154;2023-02-28T04:28:24;-1.90;85.60
8459;DHT22;4266;48.816;9.154;2023-02-28T04:30:57;-1.90;85.30
8459;DHT22;4266;48.816;9.154;2023-02-28T04:33:23;-1.80;85.20
8459;DHT22;4266;48.816;9.154;2023-02-28T04:35:57;-1.80;85.70
8459;DHT22;4266;48.816;9.154;2023-02-28T04:38:15;-1.80;85.30
8459;DHT22;4266;48.816;9.154;2023-02-28T04:40:40;-1.80;85.20
8459;DHT22;4266;48.816;9.154;2023-02-28T04:43:06;-1.80;85.40
8459;DHT22;4266;48.816;9.154;2023-02-28T04:45:32;-1.70;85.40
8459;DHT22;4266;48.816;9.154;2023-02-28T04:47:58;-1.70;85.30
8459;DHT22;4266;48.816;9.154;2023-02-28T04:50:24;-1.80;85.20
8459;DHT22;4266;48.816;9.154;2023-02-28T04:52:50;-1.80;86.00
8459;DHT22;4266;48.816;9.154;2023-02-28T04:55:16;-1.80;85.50
8459;DHT22;4266;48.816;9.154;2023-02-28T04:57:41;-1.70;85.60
8459;DHT22;4266;48.816;9.154;2023-02-28T05:00:08;-1.60;85.40
8459;DHT22;4266;48.816;9.154;2023-02-28T05:02:34;-1.70;85.10
8459;DHT22;4266;48.816;9.154;2023-02-28T05:05:00;-1.60;85.30
8459;DHT22;4266;48.816;9.154;2023-02-28T05:07:26;-1.60;85.00
8459;DHT22;4266;48.816;9.154;2023-02-28T05:09:52;-1.60;85.20
8459;DHT22;4266;48.816;9.154;2023-02-28T05:12:17;-1.70;85.10
8459;DHT22;4266;48.816;9.154;2023-02-28T05:14:43;-1.70;85.10
8459;DHT22;4266;48.816;9.154;2023-02-28T05:17:09;-1.70;85.20
8459;DHT22;4266;48.816;9.154;2023-02-28T05:19:34;-1.70;85.20
8459;DHT22;4266;48.816;9.154;2023-02-28T05:22:01;-1.70;85.30
8459;DHT22;4266;48.816;9.154;2023-02-28T05:24:27;-1.60;85.50
8459;DHT22;4266;48.816;9.154;2023-02-28T05:26:53;-1.70;85.40
8459;DHT22;4266;48.816;9.154;2023-02-28T05:29:19;-1.60;85.50
8459;DHT22;4266;48.816;9.154;2023-02-28T05:31:45;-1.60;85.50
8459;DHT22;4266;48.816;9.154;2023-02-28T05:34:10;-1.60;85.30
8459;DHT22;4266;48.816;9.154;2023-02-28T05:36:37;-1.70;85.30
8459;DHT22;4266;48.816;9.154;2023-02-28T05:39:02;-1.60;85.40
8459;DHT22;4266;48.816;9.154;2023-02-28T05:41:28;-1.60;85.40
8459;DHT22;4266;48.816;9.154;2023-02-28T05:43:54;-1.60;85.50
8459;DHT22;4266;48.816;9.154;2023-02-28T05:46:19;-1.60;85.30
8459;DHT22;4266;48.816;9.154;2023-02-28T05:48:47;-1.50;85.40
8459;DHT22;4266;48.816;9.154;2023-02-28T05:51:18;-1.60;85.30
8459;DHT22;4266;48.816;9.154;2023-02-28T05:53:45;-1.50;85.40
8459;DHT22;4266;48.816;9.154;2023-02-28T05:56:10;-1.50;85.40
8459;DHT22;4266;48.816;9.154;2023-02-28T05:58:36;-1.50;85.30
8459;DHT22;4266;48.816;9.154;2023-02-28T06:01:19;-1.50;85.30
8459;DHT22;4266;48.816;9.154;2023-02-28T06:03:41;-1.50;85.20
8459;DHT22;4266;48.816;9.154;2023-02-28T06:06:07;-1.50;85.20
8459;DHT22;4266;48.816;9.154;2023-02-28T06:08:33;-1.40;85.40
8459;DHT22;4266;48.816;9.154;2023-02-28T06:11:02;-1.40;85.40
8459;DHT22;4266;48.816;9.154;2023-02-28T06:13:24;-1.40;85.00
8459;DHT22;4266;48.816;9.154;2023-02-28T06:15:51;-1.40;85.10
8459;DHT22;4266;48.816;9.154;2023-02-28T06:18:17;-1.40;85.10
8459;DHT22;4266;48.816;9.154;2023-02-28T06:20:42;-1.50;84.70
8459;DHT22;4266;48.816;9.154;2023-02-28T06:23:08;-1.50;84.80
8459;DHT22;4266;48.816;9.154;2023-02-28T06:25:34;-1.50;84.80
8459;DHT22;4266;48.816;9.154;2023-02-28T06:28:00;-1.30;88.70
8459;DHT22;4266;48.816;9.154;2023-02-28T06:30:26;-1.30;88.80
8459;DHT22;4266;48.816;9.154;2023-02-28T06:32:52;-1.30;85.90
8459;DHT22;4266;48.816;9.154;2023-02-28T06:35:17;-1.30;85.90
8459;DHT22;4266;48.816;9.154;2023-02-28T06:37:43;-1.30;85.20
8459;DHT22;4266;48.816;9.154;2023-02-28T06:40:09;-1.30;85.50
8459;DHT22;4266;48.816;9.154;2023-02-28T06:42:35;-1.30;85.10
8459;DHT22;4266;48.816;9.154;2023-02-28T06:45:01;-1.30;85.30
8459;DHT22;4266;48.816;9.154;2023-02-28T06:47:27;-1.30;85.10
8459;DHT22;4266;48.816;9.154;2023-02-28T06:49:52;-1.20;85.00
8459;DHT22;4266;48.816;9.154;2023-02-28T06:52:18;-1.20;84.60
8459;DHT22;4266;48.816;9.154;2023-02-28T06:54:44;-1.10;84.70
8459;DHT22;4266;48.816;9.154;2023-02-28T06:57:10;-1.10;84.70
8459;DHT22;4266;48.816;9.154;2023-02-28T06:59:36;-1.10;84.40
8459;DHT22;4266;48.816;9.154;2023-02-28T07:02:01;-1.10;84.50
8459;DHT22;4266;48.816;9.154;2023-02-28T07:04:27;-1.10;84.10
8459;DHT22;4266;48.816;9.154;2023-02-28T07:06:53;-1.10;84.20
8459;DHT22;4266;48.816;9.154;2023-02-28T07:09:19;-1.10;84.30
8459;DHT22;4266;48.816;9.154;2023-02-28T07:11:44;-1.10;84.10
8459;DHT22;4266;48.816;9.154;2023-02-28T07:14:10;-1.10;84.10
8459;DHT22;4266;48.816;9.154;2023-02-28T07:16:35;-1.10;84.00
8459;DHT22;4266;48.816;9.154;2023-02-28T07:19:01;-1.00;83.90
8459;DHT22;4266;48.816;9.154;2023-02-28T07:21:27;-1.00;84.10
8459;DHT22;4266;48.816;9.154;2023-02-28T07:23:53;-0.90;84.00
8459;DHT22;4266;48.816;9.154;2023-02-28T07:26:19;-0.90;83.80
8459;DHT22;4266;48.816;9.154;2023-02-28T07:28:44;-0.90;83.80
8459;DHT22;4266;48.816;9.154;2023-02-28T07:31:10;-0.90;83.60
8459;DHT22;4266;48.816;9.154;2023-02-28T07:33:35;-0.90;83.20
8459;DHT22;4266;48.816;9.154;2023-02-28T07:36:02;-0.90;83.20
8459;DHT22;4266;48.816;9.154;2023-02-28T07:38:27;-0.90;83.30
8459;DHT22;4266;48.816;9.154;2023-02-28T07:40:52;-0.90;83.10
8459;DHT22;4266;48.816;9.154;2023-02-28T07:43:18;-0.80;83.40
8459;DHT22;4266;48.816;9.154;2023-02-28T07:45:44;-0.70;83.40
8459;DHT22;4266;48.816;9.154;2023-02-28T07:48:10;-0.70;83.40
8459;DHT22;4266;48.816;9.154;2023-02-28T07:50:36;-0.80;83.10
8459;DHT22;4266;48.816;9.154;2023-02-28T07:53:01;-0.80;82.90
8459;DHT22;4266;48.816;9.154;2023-02-28T07:55:28;-0.70;82.70
8459;DHT22;4266;48.816;9.154;2023-02-28T07:57:53;-0.70;82.70
8459;DHT22;4266;48.816;9.154;2023-02-28T08:00:20;-0.70;83.00
8459;DHT22;4266;48.816;9.154;2023-02-28T08:02:46;-0.70;83.00
8459;DHT22;4266;48.816;9.154;2023-02-28T08:05:12;-0.60;82.60
8459;DHT22;4266;48.816;9.154;2023-02-28T08:07:38;-0.70;82.50
8459;DHT22;4266;48.816;9.154;2023-02-28T08:10:04;-0.60;82.70
8459;DHT22;4266;48.816;9.154;2023-02-28T08:12:30;-0.60;82.40
8459;DHT22;4266;48.816;9.154;2023-02-28T08:14:56;-0.60;82.20
8459;DHT22;4266;48.816;9.154;2023-02-28T08:17:22;-0.60;82.30
8459;DHT22;4266;48.816;9.154;2023-02-28T08:19:48;-0.50;81.90
8459;DHT22;4266;48.816;9.154;2023-02-28T08:22:14;-0.50;81.90
8459;DHT22;4266;48.816;9.154;2023-02-28T08:24:40;-0.40;82.10
8459;DHT22;4266;48.816;9.154;2023-02-28T08:27:05;-0.40;81.30
8459;DHT22;4266;48.816;9.154;2023-02-28T08:29:31;-0.30;82.20
8459;DHT22;4266;48.816;9.154;2023-02-28T08:31:56;-0.30;81.20
8459;DHT22;4266;48.816;9.154;2023-02-28T08:34:22;-0.20;81.80
8459;DHT22;4266;48.816;9.154;2023-02-28T08:36:48;-0.20;81.40
8459;DHT22;4266;48.816;9.154;2023-02-28T08:39:13;-0.20;81.00
8459;DHT22;4266;48.816;9.154;2023-02-28T08:41:39;-0.10;81.10
8459;DHT22;4266;48.816;9.154;2023-02-28T08:44:04;-0.10;81.10
8459;DHT22;4266;48.816;9.154;2023-02-28T08:46:30;0.00;81.10
8459;DHT22;4266;48.816;9.154;2023-02-28T08:48:56;0.10;81.10
8459;DHT22;4266;48.816;9.154;2023-02-28T08:51:22;0.00;80.70
8459;DHT22;4266;48.816;9.154;2023-02-28T08:53:47;0.00;80.90
8459;DHT22;4266;48.816;9.154;2023-02-28T08:56:13;0.10;80.40
8459;DHT22;4266;48.816;9.154;2023-02-28T08:58:39;0.10;80.20
8459;DHT22;4266;48.816;9.154;2023-02-28T09:01:11;0.10;80.20
8459;DHT22;4266;48.816;9.154;2023-02-28T09:03:36;0.20;79.90
8459;DHT22;4266;48.816;9.154;2023-02-28T09:06:03;0.40;79.90
8459;DHT22;4266;48.816;9.154;2023-02-28T09:08:29;0.40;79.50
8459;DHT22;4266;48.816;9.154;2023-02-28T09:10:54;0.60;79.80
8459;DHT22;4266;48.816;9.154;2023-02-28T09:13:20;0.70;79.20
8459;DHT22;4266;48.816;9.154;2023-02-28T09:15:46;0.70;78.90
8459;DHT22;4266;48.816;9.154;2023-02-28T09:18:11;0.70;78.40
8459;DHT22;4266;48.816;9.154;2023-02-28T09:20:37;0.70;77.90
8459;DHT22;4266;48.816;9.154;2023-02-28T09:23:03;0.70;77.00
8459;DHT22;4266;48.816;9.154;2023-02-28T09:25:28;1.00;76.60
8459;DHT22;4266;48.816;9.154;2023-02-28T09:27:55;1.10;77.10
8459;DHT22;4266;48.816;9.154;2023-02-28T09:30:20;1.00;76.90
8459;DHT22;4266;48.816;9.154;2023-02-28T09:32:46;1.20;76.50
8459;DHT22;4266;48.816;9.154;2023-02-28T09:35:11;1.30;76.80
8459;DHT22;4266;48.816;9.154;2023-02-28T09:37:37;1.40;77.00
8459;DHT22;4266;48.816;9.154;2023-02-28T09:40:03;1.50;76.00
8459;DHT22;4266;48.816;9.154;2023-02-28T09:42:32;1.20;74.00
8459;DHT22;4266;48.816;9.154;2023-02-28T09:44:57;1.20;73.90
8459;DHT22;4266;48.816;9.154;2023-02-28T09:47:42;1.10;73.10
8459;DHT22;4266;48.816;9.154;2023-02-28T09:50:22;1.20;73.40
8459;DHT22;4266;48.816;9.154;2023-02-28T09:52:43;1.10;71.70
8459;DHT22;4266;48.816;9.154;2023-02-28T09:55:28;0.90;72.10
8459;DHT22;4266;48.816;9.154;2023-02-28T09:57:43;0.90;72.10
8459;DHT22;4266;48.816;9.154;2023-02-28T10:00:45;1.00;72.50
8459;DHT22;4266;48.816;9.154;2023-02-28T10:05:35;1.40;71.00
8459;DHT22;4266;48.816;9.154;2023-02-28T10:08:37;1.60;70.80
8459;DHT22;4266;48.816;9.154;2023-02-28T10:10:45;1.70;71.00
8459;DHT22;4266;48.816;9.154;2023-02-28T10:15:44;1.80;69.40
8459;DHT22;4266;48.816;9.154;2023-02-28T10:18:10;1.70;69.30
8459;DHT22;4266;48.816;9.154;2023-02-28T10:20:37;1.80;68.90
8459;DHT22;4266;48.816;9.154;2023-02-28T10:23:03;2.10;68.70
8459;DHT22;4266;48.816;9.154;2023-02-28T10:25:28;2.10;68.60
8459;DHT22;4266;48.816;9.154;2023-02-28T10:27:54;2.50;67.90
8459;DHT22;4266;48.816;9.154;2023-02-28T10:30:19;2.40;67.70
8459;DHT22;4266;48.816;9.154;2023-02-28T10:32:47;2.30;66.90
8459;DHT22;4266;48.816;9.154;2023-02-28T10:35:20;2.40;66.90
8459;DHT22;4266;48.816;9.154;2023-02-28T10:37:46;2.30;67.10
8459;DHT22;4266;48.816;9.154;2023-02-28T10:40:30;2.50;65.90
8459;DHT22;4266;48.816;9.154;2023-02-28T10:43:01;2.50;65.90
8459;DHT22;4266;48.816;9.154;2023-02-28T10:45:27;2.70;64.80
8459;DHT22;4266;48.816;9.154;2023-02-28T10:47:53;2.70;64.80
8459;DHT22;4266;48.816;9.154;2023-02-28T10:50:30;3.30;64.60
8459;DHT22;4266;48.816;9.154;2023-02-28T10:52:54;4.30;63.80
8459;DHT22;4266;48.816;9.154;2023-02-28T10:55:23;5.60;61.00
8459;DHT22;4266;48.816;9.154;2023-02-28T10:57:47;5.10;59.60
8459;DHT22;4266;48.816;9.154;2023-02-28T11:00:16;5.20;59.50
8459;DHT22;4266;48.816;9.154;2023-02-28T11:02:40;5.10;58.40
8459;DHT22;4266;48.816;9.154;2023-02-28T11:07:54;4.80;58.00
8459;DHT22;4266;48.816;9.154;2023-02-28T11:10:20;7.50;57.40
8459;DHT22;4266;48.816;9.154;2023-02-28T11:12:45;7.40;54.40
8459;DHT22;4266;48.816;9.154;2023-02-28T11:15:27;6.70;53.70
8459;DHT22;4266;48.816;9.154;2023-02-28T11:17:59;6.60;53.90
8459;DHT22;4266;48.816;9.154;2023-02-28T11:20:25;7.00;53.80
8459;DHT22;4266;48.816;9.154;2023-02-28T11:22:50;9.50;50.30
8459;DHT22;4266;48.816;9.154;2023-02-28T11:25:19;9.50;50.30
8459;DHT22;4266;48.816;9.154;2023-02-28T11:27:45;11.40;47.90
8459;DHT22;4266;48.816;9.154;2023-02-28T11:30:23;11.40;47.80
8459;DHT22;4266;48.816;9.154;2023-02-28T11:32:50;11.40;45.70
8459;DHT22;4266;48.816;9.154;2023-02-28T11:35:17;12.40;44.90
8459;DHT22;4266;48.816;9.154;2023-02-28T11:37:42;13.80;43.80
8459;DHT22;4266;48.816;9.154;2023-02-28T11:40:18;14.00;42.00
8459;DHT22;4266;48.816;9.154;2023-02-28T11:42:54;13.70;41.20
8459;DHT22;4266;48.816;9.154;2023-02-28T11:46:35;13.70;40.00
8459;DHT22;4266;48.816;9.154;2023-02-28T11:48:16;14.20;40.10
8459;DHT22;4266;48.816;9.154;2023-02-28T11:50:42;13.50;39.20
8459;DHT22;4266;48.816;9.154;2023-02-28T11:53:10;12.20;39.10
8459;DHT22;4266;48.816;9.154;2023-02-28T11:55:37;12.40;38.80
8459;DHT22;4266;48.816;9.154;2023-02-28T12:00:54;14.90;38.70
8459;DHT22;4266;48.816;9.154;2023-02-28T12:03:26;13.10;37.80
8459;DHT22;4266;48.816;9.154;2023-02-28T12:05:53;13.10;37.80
8459;DHT22;4266;48.816;9.154;2023-02-28T12:08:39;13.00;38.10
8459;DHT22;4266;48.816;9.154;2023-02-28T12:11:09;13.00;38.10
8459;DHT22;4266;48.816;9.154;2023-02-28T12:13:42;13.60;37.80
8459;DHT22;4266;48.816;9.154;2023-02-28T12:16:25;12.20;37.60
8459;DHT22;4266;48.816;9.154;2023-02-28T12:19:06;12.60;38.20
8459;DHT22;4266;48.816;9.154;2023-02-28T12:21:36;12.60;37.40
8459;DHT22;4266;48.816;9.154;2023-02-28T12:26:50;12.40;37.90
8459;DHT22;4266;48.816;9.154;2023-02-28T12:29:23;13.90;37.70
8459;DHT22;4266;48.816;9.154;2023-02-28T12:31:54;14.60;37.50
8459;DHT22;4266;48.816;9.154;2023-02-28T12:34:20;15.10;37.00
8459;DHT22;4266;48.816;9.154;2023-02-28T12:36:45;15.10;37.00
8459;DHT22;4266;48.816;9.154;2023-02-28T12:39:16;14.60;36.70
8459;DHT22;4266;48.816;9.154;2023-02-28T12:41:56;13.50;36.50
8459;DHT22;4266;48.816;9.154;2023-02-28T12:44:27;13.90;36.10
8459;DHT22;4266;48.816;9.154;2023-02-28T12:46:52;13.60;36.20
8459;DHT22;4266;48.816;9.154;2023-02-28T12:49:19;13.60;36.30
8459;DHT22;4266;48.816;9.154;2023-02-28T12:51:43;13.40;36.50
8459;DHT22;4266;48.816;9.154;2023-02-28T12:57:06;14.00;36.30
8459;DHT22;4266;48.816;9.154;2023-02-28T12:59:45;13.60;35.70
8459;DHT22;4266;48.816;9.154;2023-02-28T13:02:21;13.70;36.00
8459;DHT22;4266;48.816;9.154;2023-02-28T13:10:14;10.40;36.80
8459;DHT22;4266;48.816;9.154;2023-02-28T13:12:47;11.30;36.30
8459;DHT22;4266;48.816;9.154;2023-02-28T13:15:08;11.30;36.30
8459;DHT22;4266;48.816;9.154;2023-02-28T13:17:33;11.10;36.20
8459;DHT22;4266;48.816;9.154;2023-02-28T13:19:58;11.00;36.60
8459;DHT22;4266;48.816;9.154;2023-02-28T13:22:42;11.40;36.60
8459;DHT22;4266;48.816;9.154;2023-02-28T13:27:45;11.30;36.80
8459;DHT22;4266;48.816;9.154;2023-02-28T13:32:55;11.00;36.30
8459;DHT22;4266;48.816;9.154;2023-02-28T13:35:15;10.60;36.60
8459;DHT22;4266;48.816;9.154;2023-02-28T13:37:42;11.20;36.60
8459;DHT22;4266;48.816;9.154;2023-02-28T13:40:27;10.90;36.60
8459;DHT22;4266;48.816;9.154;2023-02-28T13:42:51;10.50;36.60
8459;DHT22;4266;48.816;9.154;2023-02-28T13:45:23;10.80;37.00
8459;DHT22;4266;48.816;9.154;2023-02-28T13:47:55;10.60;36.80
8459;DHT22;4266;48.816;9.154;2023-02-28T13:50:27;10.40;36.90
8459;DHT22;4266;48.816;9.154;2023-02-28T13:53:00;10.30;37.20
8459;DHT22;4266;48.816;9.154;2023-02-28T13:55:25;10.30;37.00
8459;DHT22;4266;48.816;9.154;2023-02-28T14:03:25;9.10;37.80
8459;DHT22;4266;48.816;9.154;2023-02-28T14:05:47;9.20;37.60
8459;DHT22;4266;48.816;9.154;2023-02-28T14:08:16;9.60;38.50
8459;DHT22;4266;48.816;9.154;2023-02-28T14:10:43;9.50;38.20
8459;DHT22;4266;48.816;9.154;2023-02-28T14:13:36;9.20;38.50
8459;DHT22;4266;48.816;9.154;2023-02-28T14:15:43;9.10;38.50
8459;DHT22;4266;48.816;9.154;2023-02-28T14:18:14;8.40;38.80
8459;DHT22;4266;48.816;9.154;2023-02-28T14:20:37;8.40;38.80
8459;DHT22;4266;48.816;9.154;2023-02-28T14:23:23;8.00;38.50
8459;DHT22;4266;48.816;9.154;2023-02-28T14:26:55;7.90;38.60
8459;DHT22;4266;48.816;9.154;2023-02-28T14:29:19;7.50;39.00
8459;DHT22;4266;48.816;9.154;2023-02-28T14:31:32;7.50;39.00
8459;DHT22;4266;48.816;9.154;2023-02-28T14:33:59;7.40;39.00
8459;DHT22;4266;48.816;9.154;2023-02-28T14:36:26;7.10;39.60
8459;DHT22;4266;48.816;9.154;2023-02-28T14:38:54;7.10;39.60
8459;DHT22;4266;48.816;9.154;2023-02-28T14:41:37;7.10;39.60
8459;DHT22;4266;48.816;9.154;2023-02-28T14:44:01;7.20;39.70
8459;DHT22;4266;48.816;9.154;2023-02-28T14:46:35;6.80;39.70
8459;DHT22;4266;48.816;9.154;2023-02-28T14:48:54;6.70;39.70
8459;DHT22;4266;48.816;9.154;2023-02-28T14:51:21;6.60;39.80
8459;DHT22;4266;48.816;9.154;2023-02-28T14:53:47;6.50;39.80
8459;DHT22;4266;48.816;9.154;2023-02-28T14:56:19;6.40;40.00
8459;DHT22;4266;48.816;9.154;2023-02-28T14:58:42;6.30;40.10
8459;DHT22;4266;48.816;9.154;2023-02-28T15:01:10;6.10;40.10
8459;DHT22;4266;48.816;9.154;2023-02-28T15:03:36;6.00;40.50
8459;DHT22;4266;48.816;9.154;2023-02-28T15:06:02;6.00;40.50
8459;DHT22;4266;48.816;9.154;2023-02-28T15:08:27;6.00;40.40
8459;DHT22;4266;48.816;9.154;2023-02-28T15:11:11;6.00;40.40
8459;DHT22;4266;48.816;9.154;2023-02-28T15:13:45;5.70;40.60
8459;DHT22;4266;48.816;9.154;2023-02-28T15:16:11;5.70;40.90
8459;DHT22;4266;48.816;9.154;2023-02-28T15:18:49;5.70;41.00
8459;DHT22;4266;48.816;9.154;2023-02-28T15:21:17;5.50;40.70
8459;DHT22;4266;48.816;9.154;2023-02-28T15:23:42;5.40;41.10
8459;DHT22;4266;48.816;9.154;2023-02-28T15:26:07;5.40;41.20
8459;DHT22;4266;48.816;9.154;2023-02-28T15:28:32;5.30;41.30
8459;DHT22;4266;48.816;9.154;2023-02-28T15:31:00;5.30;41.40
8459;DHT22;4266;48.816;9.154;2023-02-28T15:33:26;5.30;41.40
8459;DHT22;4266;48.816;9.154;2023-02-28T15:35:51;5.30;41.50
8459;DHT22;4266;48.816;9.154;2023-02-28T15:38:21;5.40;41.90
8459;DHT22;4266;48.816;9.154;2023-02-28T15:40:45;5.40;41.90
8459;DHT22;4266;48.816;9.154;2023-02-28T15:43:16;5.30;41.90
8459;DHT22;4266;48.816;9.154;2023-02-28T15:45:45;5.10;41.90
8459;DHT22;4266;48.816;9.154;2023-02-28T15:48:14;5.20;42.30
8459;DHT22;4266;48.816;9.154;2023-02-28T15:50:38;5.10;42.20
8459;DHT22;4266;48.816;9.154;2023-02-28T15:53:04;5.10;42.30
8459;DHT22;4266;48.816;9.154;2023-02-28T15:55:30;4.90;42.30
8459;DHT22;4266;48.816;9.154;2023-02-28T15:57:56;5.00;42.80
8459;DHT22;4266;48.816;9.154;2023-02-28T16:00:22;5.00;42.50
8459;DHT22;4266;48.816;9.154;2023-02-28T16:02:47;4.90;42.50
8459;DHT22;4266;48.816;9.154;2023-02-28T16:05:21;5.00;42.80
8459;DHT22;4266;48.816;9.154;2023-02-28T16:07:49;4.90;43.00
8459;DHT22;4266;48.816;9.154;2023-02-28T16:10:15;4.80;43.00
8459;DHT22;4266;48.816;9.154;2023-02-28T16:12:40;4.60;42.70
8459;DHT22;4266;48.816;9.154;2023-02-28T16:15:08;4.60;43.10
8459;DHT22;4266;48.816;9.154;2023-02-28T16:17:34;4.50;42.80
8459;DHT22;4266;48.816;9.154;2023-02-28T16:19:59;4.50;43.10
8459;DHT22;4266;48.816;9.154;2023-02-28T16:22:24;4.40;43.20
8459;DHT22;4266;48.816;9.154;2023-02-28T16:24:50;4.40;43.40
8459;DHT22;4266;48.816;9.154;2023-02-28T16:27:19;4.30;43.40
8459;DHT22;4266;48.816;9.154;2023-02-28T16:29:43;4.20;43.70
8459;DHT22;4266;48.816;9.154;2023-02-28T16:32:11;4.10;43.80
8459;DHT22;4266;48.816;9.154;2023-02-28T16:34:36;4.10;43.70
8459;DHT22;4266;48.816;9.154;2023-02-28T16:37:03;4.00;43.90
8459;DHT22;4266;48.816;9.154;2023-02-28T16:39:28;4.00;43.80
8459;DHT22;4266;48.816;9.154;2023-02-28T16:41:54;4.00;44.20
8459;DHT22;4266;48.816;9.154;2023-02-28T16:44:26;3.90;44.10
8459;DHT22;4266;48.816;9.154;2023-02-28T16:46:49;3.80;44.20
8459;DHT22;4266;48.816;9.154;2023-02-28T16:49:14;3.80;44.10
8459;DHT22;4266;48.816;9.154;2023-02-28T16:51:40;3.70;44.40